createdAt,value
2022-12-06T00:02:04.016Z,11.18
2022-12-06T00:04:49.889Z,11.43
2022-12-06T00:07:37.505Z,12.35
2022-12-06T00:10:23.738Z,10.15
2022-12-06T00:13:09.724Z,12.23
2022-12-06T00:15:55.680Z,12.50
2022-12-06T00:18:42.899Z,11.65
2022-12-06T00:21:31.458Z,12.88
2022-12-06T00:24:20.473Z,10.75
2022-12-06T00:27:06.170Z,12.07
2022-12-06T00:29:51.950Z,11.43
2022-12-06T00:32:38.264Z,13.52
2022-12-06T00:35:24.338Z,9.35
2022-12-06T00:38:10.418Z,9.68
2022-12-06T00:41:01.851Z,9.77
2022-12-06T00:43:48.271Z,14.73
2022-12-06T00:46:35.592Z,15.48
2022-12-06T00:49:21.181Z,14.95
2022-12-06T00:52:07.432Z,11.75
2022-12-06T00:54:53.602Z,10.93
2022-12-06T00:57:40.827Z,14.18
2022-12-06T01:00:27.456Z,13.35
2022-12-06T01:03:13.447Z,15.10
2022-12-06T01:06:04.212Z,13.15
2022-12-06T01:08:50.480Z,10.60
2022-12-06T01:11:37.535Z,10.68
2022-12-06T01:14:24.946Z,11.65
2022-12-06T01:17:10.865Z,16.27
2022-12-06T01:19:56.586Z,15.35
2022-12-06T01:22:42.467Z,15.18
2022-12-06T01:25:30.615Z,14.32
2022-12-06T01:28:18.985Z,12.27
2022-12-06T01:31:09.393Z,16.02
2022-12-06T01:33:55.004Z,12.88
2022-12-06T01:36:40.453Z,17.08
2022-12-06T01:39:26.589Z,11.38
2022-12-06T01:42:13.352Z,12.68
2022-12-06T01:44:59.486Z,15.18
2022-12-06T01:47:46.899Z,13.70
2022-12-06T01:50:32.962Z,15.00
2022-12-06T01:53:25.298Z,15.35
2022-12-06T01:56:12.640Z,11.77
2022-12-06T01:58:59.767Z,13.95
2022-12-06T02:01:46.797Z,18.42
2022-12-06T02:04:34.791Z,19.23
2022-12-06T02:07:22.288Z,14.05
2022-12-06T02:10:09.152Z,13.75
2022-12-06T02:12:57.576Z,12.50
2022-12-06T02:15:52.011Z,16.00
2022-12-06T02:18:47.016Z,15.05
2022-12-06T02:21:42.989Z,18.90
2022-12-06T02:24:43.051Z,11.43
2022-12-06T02:27:50.048Z,16.63
2022-12-06T02:30:58.447Z,17.75
2022-12-06T02:33:48.762Z,17.67
2022-12-06T02:36:40.501Z,16.20
2022-12-06T02:39:34.578Z,19.10
2022-12-06T02:42:24.608Z,25.08
2022-12-06T02:45:14.268Z,18.02
2022-12-06T02:48:04.192Z,15.50
2022-12-06T02:50:56.327Z,14.85
2022-12-06T02:53:45.704Z,17.20
2022-12-06T02:56:33.017Z,19.15
2022-12-06T02:59:18.468Z,14.65
2022-12-06T03:02:09.675Z,21.90
2022-12-06T03:05:07.093Z,14.77
2022-12-06T03:07:53.604Z,17.42
2022-12-06T03:10:45.150Z,15.10
2022-12-06T03:13:35.876Z,16.50
2022-12-06T03:16:28.300Z,17.92
2022-12-06T03:19:19.126Z,14.55
2022-12-06T03:22:09.253Z,19.77
2022-12-06T03:24:56.639Z,18.27
2022-12-06T03:27:43.725Z,15.10
2022-12-06T03:30:33.047Z,18.88
2022-12-06T03:33:22.705Z,13.80
2022-12-06T03:36:10.657Z,12.82
2022-12-06T03:39:00.264Z,19.05
2022-12-06T03:41:51.389Z,17.58
2022-12-06T03:44:37.685Z,14.45
2022-12-06T03:47:31.358Z,15.82
2022-12-06T03:50:20.830Z,22.27
2022-12-06T03:53:06.662Z,16.50
2022-12-06T03:55:54.308Z,16.58
2022-12-06T03:58:40.231Z,18.42
2022-12-06T04:01:25.783Z,18.17
2022-12-06T04:04:11.691Z,19.95
2022-12-06T04:06:57.776Z,18.02
2022-12-06T04:10:02.760Z,21.95
2022-12-06T04:13:01.724Z,18.15
2022-12-06T04:15:47.570Z,12.02
2022-12-06T04:18:32.924Z,19.85
2022-12-06T04:21:36.460Z,14.90
2022-12-06T04:24:22.161Z,11.80
2022-12-06T04:27:26.466Z,22.73
2022-12-06T04:30:32.431Z,18.05
2022-12-06T04:33:37.004Z,21.63
2022-12-06T04:36:41.116Z,23.13
2022-12-06T04:39:27.142Z,27.30
2022-12-06T04:42:32.126Z,21.45
2022-12-06T04:45:18.940Z,21.77
2022-12-06T04:48:05.259Z,29.23
2022-12-06T04:50:51.513Z,19.73
2022-12-06T04:53:37.325Z,22.02
2022-12-06T04:56:22.794Z,16.52
2022-12-06T04:59:08.278Z,12.98
2022-12-06T05:01:56.450Z,12.90
2022-12-06T05:04:42.265Z,13.70
2022-12-06T05:07:28.317Z,12.85
2022-12-06T05:10:14.251Z,13.90
2022-12-06T05:13:00.867Z,13.38
2022-12-06T05:15:50.632Z,12.88
2022-12-06T05:18:38.046Z,17.45
2022-12-06T05:21:24.963Z,14.85
2022-12-06T05:24:10.578Z,12.77
2022-12-06T05:26:56.173Z,12.95
2022-12-06T05:29:42.274Z,13.98
2022-12-06T05:32:28.033Z,13.30
2022-12-06T05:35:15.332Z,12.65
2022-12-06T05:38:00.836Z,11.30
2022-12-06T05:40:46.659Z,12.43
2022-12-06T05:43:32.406Z,10.88
2022-12-06T05:46:18.485Z,11.40
2022-12-06T05:49:04.614Z,10.95
2022-12-06T05:51:51.581Z,9.45
2022-12-06T05:54:37.110Z,10.77
2022-12-06T05:57:22.550Z,18.30
2022-12-06T06:00:09.637Z,8.30
2022-12-06T06:02:55.441Z,11.98
2022-12-06T06:05:46.024Z,11.27
2022-12-06T06:08:33.283Z,8.30
2022-12-06T06:11:18.964Z,11.05
2022-12-06T06:14:04.767Z,13.68
2022-12-06T06:16:52.271Z,13.38
2022-12-06T06:19:38.261Z,13.48
2022-12-06T06:22:24.598Z,10.52
2022-12-06T06:25:11.697Z,13.27
2022-12-06T06:27:57.368Z,12.90
2022-12-06T06:30:43.093Z,11.38
2022-12-06T06:33:29.122Z,10.55
2022-12-06T06:36:14.890Z,13.10
2022-12-06T06:39:00.522Z,14.13
2022-12-06T06:41:47.852Z,9.70
2022-12-06T06:44:33.557Z,9.88
2022-12-06T06:47:19.253Z,14.18
2022-12-06T06:50:05.719Z,12.77
2022-12-06T06:52:51.427Z,19.75
2022-12-06T06:55:37.611Z,16.90
2022-12-06T06:58:25.516Z,17.70
2022-12-06T07:01:17.512Z,10.48
2022-12-06T07:04:03.182Z,12.98
2022-12-06T07:06:48.987Z,11.73
2022-12-06T07:09:35.117Z,12.93
2022-12-06T07:12:20.928Z,11.82
2022-12-06T07:15:09.492Z,12.63
2022-12-06T07:17:55.234Z,14.88
2022-12-06T07:20:41.270Z,12.95
2022-12-06T07:23:27.081Z,16.33
2022-12-06T07:26:14.160Z,19.67
2022-12-06T07:29:00.573Z,16.80
2022-12-06T07:31:47.441Z,13.32
2022-12-06T07:34:33.582Z,16.60
2022-12-06T07:37:20.578Z,10.23
2022-12-06T07:40:08.118Z,15.88
2022-12-06T07:43:12.502Z,13.00
2022-12-06T07:45:58.156Z,16.35
2022-12-06T07:48:45.565Z,12.50
2022-12-06T07:51:31.996Z,12.25
2022-12-06T07:54:18.123Z,16.13
2022-12-06T07:57:04.122Z,14.23
2022-12-06T07:59:49.768Z,16.92
2022-12-06T08:02:35.810Z,15.30
2022-12-06T08:05:22.764Z,15.52
2022-12-06T08:08:08.447Z,10.68
2022-12-06T08:10:54.394Z,9.13
2022-12-06T08:13:40.130Z,9.63
2022-12-06T08:16:26.219Z,11.45
2022-12-06T08:19:12.405Z,9.45
2022-12-06T08:21:59.587Z,43.88
2022-12-06T08:24:45.220Z,51.60
2022-12-06T08:27:30.828Z,26.75
2022-12-06T08:30:17.265Z,13.77
2022-12-06T08:33:02.964Z,10.73
2022-12-06T08:35:48.936Z,9.88
2022-12-06T08:38:36.423Z,10.35
2022-12-06T08:41:41.772Z,12.35
2022-12-06T08:44:28.821Z,7.15
2022-12-06T08:47:14.695Z,7.07
2022-12-06T08:50:00.782Z,11.50
2022-12-06T08:52:46.702Z,8.30
2022-12-06T08:55:33.982Z,7.63
2022-12-06T08:58:19.620Z,7.35
2022-12-06T09:01:11.835Z,10.40
2022-12-06T09:03:59.322Z,9.63
2022-12-06T09:06:46.414Z,9.23
2022-12-06T09:09:32.119Z,9.80
2022-12-06T09:12:19.216Z,8.40
2022-12-06T09:15:06.064Z,7.68
2022-12-06T09:17:52.126Z,10.27
2022-12-06T09:20:39.932Z,11.85
2022-12-06T09:23:25.850Z,8.05
2022-12-06T09:26:12.163Z,13.27
2022-12-06T09:28:59.740Z,7.53
2022-12-06T09:31:45.404Z,7.32
2022-12-06T09:34:31.537Z,12.85
2022-12-06T09:37:17.511Z,4.93
2022-12-06T09:40:11.891Z,4.22
2022-12-06T09:43:08.648Z,3.25
2022-12-06T09:46:14.824Z,4.50
2022-12-06T09:49:18.294Z,10.52
2022-12-06T09:52:22.358Z,5.60
2022-12-06T09:55:22.853Z,4.20
2022-12-06T09:58:18.615Z,7.10
2022-12-06T10:01:16.574Z,3.92
2022-12-06T10:04:21.453Z,2.13
2022-12-06T10:07:15.542Z,3.35
2022-12-06T10:10:11.905Z,3.65
2022-12-06T10:13:06.804Z,2.92
2022-12-06T10:16:05.076Z,6.60
2022-12-06T10:19:03.366Z,2.10
2022-12-06T10:22:01.358Z,6.20
2022-12-06T10:24:57.822Z,6.97
2022-12-06T10:27:50.252Z,3.40
2022-12-06T10:30:44.753Z,4.28
2022-12-06T10:33:38.567Z,3.30
2022-12-06T10:36:40.958Z,4.10
2022-12-06T10:39:31.981Z,3.63
2022-12-06T10:42:29.734Z,3.47
2022-12-06T10:45:42.295Z,5.40
2022-12-06T10:48:35.338Z,3.03
2022-12-06T10:51:26.477Z,4.28
2022-12-06T10:54:23.935Z,4.47
2022-12-06T10:57:16.924Z,2.05
2022-12-06T11:00:15.579Z,4.32
2022-12-06T11:03:11.132Z,6.18
2022-12-06T11:06:01.577Z,5.22
2022-12-06T11:08:52.004Z,6.38
2022-12-06T11:11:40.569Z,9.75
2022-12-06T11:14:33.134Z,8.23
2022-12-06T11:17:22.247Z,4.38
2022-12-06T11:20:21.370Z,3.63
2022-12-06T11:23:12.974Z,7.10
2022-12-06T11:26:18.136Z,4.15
2022-12-06T11:29:11.301Z,5.75
2022-12-06T11:32:01.499Z,4.65
2022-12-06T11:34:50.572Z,4.03
2022-12-06T11:37:41.449Z,5.32
2022-12-06T11:40:32.835Z,6.32
2022-12-06T11:43:24.252Z,3.70
2022-12-06T11:49:09.631Z,3.90
2022-12-06T11:51:57.746Z,6.40
2022-12-06T11:54:50.066Z,7.13
2022-12-06T11:57:40.895Z,5.45
2022-12-06T12:00:27.474Z,7.60
2022-12-06T12:03:28.553Z,6.10
2022-12-06T12:06:21.787Z,5.80
2022-12-06T12:09:19.494Z,7.85
2022-12-06T12:12:14.577Z,5.97
2022-12-06T12:15:00.667Z,5.70
2022-12-06T12:17:50.158Z,4.97
2022-12-06T12:20:39.689Z,9.50
2022-12-06T12:23:29.761Z,8.60
2022-12-06T12:26:18.173Z,3.63
2022-12-06T12:29:14.579Z,5.63
2022-12-06T12:32:09.489Z,6.65
2022-12-06T12:34:55.955Z,8.85
2022-12-06T12:37:43.782Z,8.23
2022-12-06T12:40:35.523Z,8.23
2022-12-06T12:43:23.392Z,6.72
2022-12-06T12:46:19.657Z,3.92
2022-12-06T12:49:23.358Z,4.03
2022-12-06T12:52:28.659Z,5.70
2022-12-06T12:55:18.958Z,3.88
2022-12-06T12:58:10.751Z,4.63
2022-12-06T13:01:03.113Z,7.28
2022-12-06T13:03:52.972Z,4.10
2022-12-06T13:06:47.243Z,6.18
2022-12-06T13:09:40.696Z,6.28
2022-12-06T13:12:30.943Z,6.28
2022-12-06T13:15:19.424Z,6.65
2022-12-06T13:18:11.497Z,3.88
2022-12-06T13:21:00.713Z,6.43
2022-12-06T13:23:48.388Z,5.47
2022-12-06T13:26:38.265Z,7.05
2022-12-06T13:29:32.421Z,6.70
2022-12-06T13:32:22.263Z,3.25
2022-12-06T13:35:18.961Z,4.28
2022-12-06T13:38:26.625Z,4.90
2022-12-06T13:41:14.514Z,5.20
2022-12-06T13:44:00.169Z,7.22
2022-12-06T13:46:47.258Z,5.20
2022-12-06T13:49:48.619Z,12.27
2022-12-06T13:53:02.298Z,3.15
2022-12-06T13:55:59.706Z,4.40
2022-12-06T13:58:54.416Z,7.05
2022-12-06T14:01:42.992Z,7.40
2022-12-06T14:07:33.847Z,5.70
2022-12-06T14:10:19.845Z,4.15
2022-12-06T14:13:05.409Z,4.78
2022-12-06T14:15:52.361Z,3.85
2022-12-06T14:18:41.960Z,5.80
2022-12-06T14:21:34.753Z,5.45
2022-12-06T14:24:26.298Z,5.53
2022-12-06T14:30:04.596Z,6.38
2022-12-06T14:32:52.455Z,7.78
2022-12-06T14:35:40.206Z,8.98
2022-12-06T14:38:29.084Z,12.88
2022-12-06T14:41:36.819Z,8.30
2022-12-06T14:44:28.743Z,8.75
2022-12-06T14:47:15.895Z,8.38
2022-12-06T14:50:21.281Z,3.75
2022-12-06T14:53:11.600Z,4.32
2022-12-06T14:56:02.130Z,6.67
2022-12-06T14:58:48.820Z,4.45
2022-12-06T15:01:34.685Z,8.52
2022-12-06T15:04:26.558Z,6.65
2022-12-06T15:07:48.010Z,4.65
2022-12-06T15:10:34.726Z,6.50
2022-12-06T15:13:23.303Z,10.05
2022-12-06T15:16:15.162Z,12.35
2022-12-06T15:19:01.432Z,7.82
2022-12-06T15:21:50.701Z,10.25
2022-12-06T15:24:36.740Z,6.97
2022-12-06T15:27:23.947Z,7.60
2022-12-06T15:30:13.472Z,8.55
2022-12-06T15:32:59.291Z,8.20
2022-12-06T15:35:45.357Z,6.95
2022-12-06T15:38:31.242Z,12.35
2022-12-06T15:41:18.487Z,7.47
2022-12-06T15:44:04.015Z,7.28
2022-12-06T15:46:51.378Z,5.43
2022-12-06T15:49:38.060Z,6.53
2022-12-06T15:52:24.315Z,9.32
2022-12-06T15:55:16.335Z,8.18
2022-12-06T15:58:02.203Z,5.22
2022-12-06T16:00:48.171Z,6.28
2022-12-06T16:03:35.706Z,6.93
2022-12-06T16:06:24.346Z,8.30
2022-12-06T16:09:10.688Z,8.38
2022-12-06T16:11:56.623Z,7.05
2022-12-06T16:14:42.495Z,9.15
2022-12-06T16:17:28.163Z,11.18
2022-12-06T16:20:30.879Z,9.02
2022-12-06T16:24:04.716Z,9.23
2022-12-06T16:26:44.771Z,6.85
2022-12-06T16:29:31.107Z,10.48
2022-12-06T16:32:16.640Z,6.47
2022-12-06T16:35:02.511Z,10.90
2022-12-06T16:37:49.742Z,8.48
2022-12-06T16:40:35.657Z,13.05
2022-12-06T16:43:21.779Z,8.10
2022-12-06T16:46:27.566Z,11.45
2022-12-06T16:49:44.756Z,9.02
2022-12-06T16:52:22.283Z,8.50
2022-12-06T16:55:10.276Z,9.00
2022-12-06T16:57:56.474Z,8.75
2022-12-06T17:00:42.286Z,10.68
2022-12-06T17:03:28.195Z,9.80
2022-12-06T17:06:14.017Z,9.60
2022-12-06T17:09:00.337Z,9.55
2022-12-06T17:12:02.867Z,10.00
2022-12-06T17:14:48.391Z,10.35
2022-12-06T17:17:33.945Z,12.35
2022-12-06T17:20:20.722Z,12.23
2022-12-06T17:23:06.542Z,9.82
2022-12-06T17:25:57.011Z,10.75
2022-12-06T17:28:44.467Z,7.60
2022-12-06T17:31:30.413Z,11.75
2022-12-06T17:34:16.918Z,10.55
2022-12-06T19:25:42.647Z,21.07
2022-12-06T19:31:14.371Z,20.10
2022-12-06T19:34:00.227Z,22.00
2022-12-06T19:39:32.031Z,24.67
2022-12-06T19:42:37.868Z,20.42
2022-12-06T19:45:24.268Z,21.48
2022-12-06T19:48:10.265Z,20.20
2022-12-06T19:50:56.357Z,24.02
2022-12-06T19:53:42.633Z,25.50
2022-12-06T19:56:28.850Z,22.75
2022-12-06T19:59:16.670Z,28.55
2022-12-06T20:26:18.407Z,26.40
2022-12-06T20:29:04.855Z,22.45
2022-12-06T20:31:52.463Z,25.98
2022-12-06T20:37:23.750Z,26.48
2022-12-06T20:40:10.829Z,29.70
2022-12-06T20:48:29.526Z,27.10
2022-12-06T20:51:18.550Z,24.42
2022-12-06T20:59:40.137Z,33.95
2022-12-06T21:05:19.009Z,30.08
2022-12-06T21:08:05.205Z,29.75
2022-12-06T21:11:21.145Z,29.13
2022-12-06T21:13:59.134Z,25.58
2022-12-06T21:16:45.589Z,30.63
2022-12-06T21:19:31.305Z,28.67
2022-12-06T21:25:14.045Z,30.05
2022-12-06T21:28:00.015Z,39.28
2022-12-06T21:30:49.987Z,32.80
2022-12-06T21:33:36.256Z,32.80
2022-12-06T21:36:22.610Z,31.52
2022-12-06T21:44:41.783Z,30.45
2022-12-06T21:47:27.387Z,28.13
2022-12-06T22:04:04.757Z,30.75
2022-12-06T22:06:50.799Z,23.63
2022-12-06T22:09:36.353Z,25.52
2022-12-06T22:12:23.469Z,25.85
2022-12-06T22:15:09.840Z,23.30
2022-12-06T22:17:55.711Z,29.35
2022-12-06T22:20:41.061Z,31.85
2022-12-06T22:23:26.964Z,33.42
2022-12-06T22:26:14.984Z,28.85
2022-12-06T22:29:02.181Z,32.50
2022-12-06T22:31:47.736Z,27.77
2022-12-06T22:34:34.035Z,33.97
2022-12-06T22:37:22.888Z,28.95
2022-12-06T22:40:11.770Z,33.83
2022-12-06T22:42:57.632Z,30.00
2022-12-06T22:45:44.866Z,36.78
2022-12-06T22:48:31.200Z,31.55
2022-12-06T22:51:19.966Z,34.22
2022-12-06T22:54:09.648Z,29.65
2022-12-06T22:56:56.874Z,30.70
2022-12-06T22:59:42.707Z,32.10
2022-12-06T23:02:30.307Z,32.53
2022-12-06T23:05:15.912Z,29.38
2022-12-06T23:08:01.924Z,33.95
2022-12-06T23:10:47.827Z,30.52
2022-12-06T23:13:34.606Z,30.80
2022-12-06T23:16:23.242Z,32.00
2022-12-06T23:19:11.194Z,33.13
2022-12-06T23:21:56.915Z,32.20
2022-12-06T23:24:42.522Z,36.30
2022-12-06T23:27:28.064Z,34.78
2022-12-06T23:30:14.082Z,32.40
2022-12-06T23:33:00.154Z,35.15
2022-12-06T23:35:47.378Z,29.85
2022-12-06T23:38:33.528Z,33.80
2022-12-06T23:41:21.028Z,33.28
2022-12-06T23:44:07.556Z,32.90
2022-12-06T23:46:53.771Z,34.28
2022-12-06T23:49:39.576Z,31.02
2022-12-06T23:52:27.033Z,31.98
2022-12-06T23:55:12.681Z,30.08
2022-12-06T23:57:58.588Z,32.47
